createdAt,value
2023-04-10T00:00:01.461Z,80.64
2023-04-10T00:01:03.325Z,80.71
2023-04-10T00:02:05.076Z,81.06
2023-04-10T00:03:06.939Z,81.13
2023-04-10T00:04:09.085Z,81.17
2023-04-10T00:05:11.450Z,81.01
2023-04-10T00:06:13.164Z,80.97
2023-04-10T00:07:14.909Z,80.88
2023-04-10T00:08:16.488Z,81.04
2023-04-10T00:09:18.088Z,81.01
2023-04-10T00:10:19.964Z,81.15
2023-04-10T00:11:21.556Z,81.40
2023-04-10T00:12:23.200Z,81.46
2023-04-10T00:13:24.821Z,81.53
2023-04-10T00:14:26.435Z,81.55
2023-04-10T00:15:28.904Z,81.52
2023-04-10T00:16:30.756Z,81.52
2023-04-10T00:17:32.450Z,81.65
2023-04-10T00:18:34.115Z,81.62
2023-04-10T00:19:35.808Z,81.74
2023-04-10T00:20:37.387Z,82.05
2023-04-10T00:21:39.026Z,82.06
2023-04-10T00:22:41.960Z,82.07
2023-04-10T00:23:43.529Z,82.08
2023-04-10T00:24:45.348Z,81.90
2023-04-10T00:25:47.735Z,81.70
2023-04-10T00:26:49.332Z,81.56
2023-04-10T00:27:51.066Z,81.70
2023-04-10T00:28:52.792Z,81.47
2023-04-10T00:29:54.407Z,81.38
2023-04-10T00:30:56.018Z,81.84
2023-04-10T00:31:58.017Z,81.65
2023-04-10T00:32:59.770Z,81.74
2023-04-10T00:34:01.442Z,81.62
2023-04-10T00:35:03.079Z,81.44
2023-04-10T00:36:04.896Z,81.44
2023-04-10T00:37:06.597Z,81.31
2023-04-10T00:38:08.187Z,81.15
2023-04-10T00:39:09.846Z,81.19
2023-04-10T00:40:12.389Z,81.20
2023-04-10T00:41:13.984Z,81.43
2023-04-10T00:42:15.725Z,81.42
2023-04-10T00:43:20.232Z,81.59
2023-04-10T00:44:21.807Z,81.59
2023-04-10T00:45:23.407Z,81.66
2023-04-10T00:46:25.210Z,81.54
2023-04-10T00:47:27.600Z,81.64
2023-04-10T00:48:29.188Z,82.00
2023-04-10T00:49:31.562Z,81.97
2023-04-10T00:50:33.155Z,82.03
2023-04-10T00:51:34.721Z,82.00
2023-04-10T00:52:36.343Z,82.05
2023-04-10T00:53:37.911Z,82.10
2023-04-10T00:54:39.497Z,82.22
2023-04-10T00:55:41.198Z,82.16
2023-04-10T00:56:42.858Z,82.08
2023-04-10T00:57:46.260Z,81.97
2023-04-10T00:58:47.990Z,81.81
2023-04-10T00:59:51.079Z,82.06
2023-04-10T01:00:52.751Z,82.10
2023-04-10T01:01:54.481Z,82.06
2023-04-10T01:02:56.477Z,82.04
2023-04-10T01:03:58.603Z,82.29
2023-04-10T01:05:00.890Z,82.39
2023-04-10T01:06:23.637Z,82.43
2023-04-10T01:07:36.630Z,82.46
2023-04-10T01:08:38.222Z,82.40
2023-04-10T01:10:00.351Z,82.27
2023-04-10T01:11:09.301Z,82.35
2023-04-10T01:12:24.486Z,82.67
2023-04-10T01:13:29.976Z,82.57
2023-04-10T01:14:44.610Z,82.65
2023-04-10T01:16:36.734Z,82.91
2023-04-10T01:17:46.526Z,82.89
2023-04-10T01:18:55.483Z,82.87
2023-04-10T01:20:07.372Z,82.68
2023-04-10T01:21:09.422Z,82.52
2023-04-10T01:22:13.615Z,82.53
2023-04-10T01:23:27.251Z,82.61
2023-04-10T01:24:44.867Z,83.02
2023-04-10T01:25:49.576Z,83.00
2023-04-10T01:27:03.097Z,83.03
2023-04-10T01:28:09.016Z,82.89
2023-04-10T01:29:13.024Z,82.89
2023-04-10T01:30:16.811Z,82.85
2023-04-10T01:31:30.161Z,82.69
2023-04-10T01:32:31.903Z,82.78
2023-04-10T01:33:39.244Z,83.09
2023-04-10T01:34:43.747Z,83.00
2023-04-10T01:35:51.246Z,82.89
2023-04-10T01:36:58.631Z,82.90
2023-04-10T01:38:01.152Z,82.78
2023-04-10T01:39:02.785Z,82.79
2023-04-10T01:40:07.199Z,82.74
2023-04-10T01:41:08.821Z,82.67
2023-04-10T01:42:12.062Z,82.63
2023-04-10T01:43:13.673Z,82.60
2023-04-10T01:44:15.658Z,82.98
2023-04-10T01:45:35.225Z,82.82
2023-04-10T01:46:36.845Z,82.72
2023-04-10T01:47:38.469Z,82.60
2023-04-10T01:48:40.153Z,82.36
2023-04-10T01:49:44.720Z,82.55
2023-04-10T01:50:46.793Z,82.48
2023-04-10T01:51:48.417Z,82.42
2023-04-10T01:52:50.863Z,82.65
2023-04-10T01:53:52.758Z,82.64
2023-04-10T01:54:54.615Z,82.54
2023-04-10T01:55:56.252Z,82.30
2023-04-10T01:56:59.437Z,82.05
2023-04-10T01:58:01.381Z,82.32
2023-04-10T01:59:03.857Z,82.09
2023-04-10T02:00:06.075Z,82.18
2023-04-10T02:01:16.379Z,82.15
2023-04-10T02:02:24.393Z,82.22
2023-04-10T02:03:26.333Z,82.10
2023-04-10T02:04:28.277Z,82.18
2023-04-10T02:05:31.932Z,81.98
2023-04-10T02:06:42.593Z,82.12
2023-04-10T02:07:45.731Z,82.19
2023-04-10T02:08:53.889Z,82.17
2023-04-10T02:10:15.724Z,82.60
2023-04-10T02:11:34.442Z,82.67
2023-04-10T02:12:56.712Z,82.96
2023-04-10T02:14:00.213Z,82.98
2023-04-10T02:15:02.124Z,82.99
2023-04-10T02:16:05.243Z,82.94
2023-04-10T02:17:08.261Z,83.08
2023-04-10T02:18:10.267Z,82.95
2023-04-10T02:19:11.923Z,82.67
2023-04-10T02:20:13.503Z,83.00
2023-04-10T02:21:15.753Z,83.03
2023-04-10T02:22:17.764Z,82.80
2023-04-10T02:23:20.551Z,82.54
2023-04-10T02:24:22.178Z,82.60
2023-04-10T02:25:23.774Z,82.50
2023-04-10T02:26:25.431Z,82.59
2023-04-10T02:27:28.699Z,82.90
2023-04-10T02:28:30.312Z,82.95
2023-04-10T02:29:31.900Z,83.06
2023-04-10T02:30:33.653Z,82.97
2023-04-10T02:31:35.496Z,82.87
2023-04-10T02:32:37.242Z,83.15
2023-04-10T02:33:38.948Z,83.27
2023-04-10T02:34:40.604Z,83.38
2023-04-10T02:35:42.310Z,83.53
2023-04-10T02:36:44.038Z,83.48
2023-04-10T02:37:47.497Z,83.30
2023-04-10T02:38:49.047Z,83.73
2023-04-10T02:39:51.322Z,83.67
2023-04-10T02:40:52.960Z,83.83
2023-04-10T02:41:54.590Z,83.78
2023-04-10T02:42:56.224Z,83.87
2023-04-10T02:43:57.835Z,83.84
2023-04-10T02:44:59.407Z,83.89
2023-04-10T02:46:01.118Z,84.27
2023-04-10T02:47:02.893Z,84.09
2023-04-10T02:48:07.593Z,84.70
2023-04-10T02:49:09.247Z,84.45
2023-04-10T02:50:11.479Z,84.33
2023-04-10T02:51:13.392Z,84.39
2023-04-10T02:52:14.970Z,84.70
2023-04-10T02:53:16.777Z,84.70
2023-04-10T02:54:18.440Z,84.73
2023-04-10T02:55:20.008Z,84.69
2023-04-10T02:56:21.621Z,84.65
2023-04-10T02:57:23.190Z,84.56
2023-04-10T02:58:24.820Z,84.75
2023-04-10T02:59:26.516Z,85.06
2023-04-10T03:00:29.063Z,85.01
2023-04-10T03:01:31.270Z,85.13
2023-04-10T03:02:33.520Z,85.03
2023-04-10T03:03:35.478Z,85.03
2023-04-10T03:04:37.204Z,85.07
2023-04-10T03:05:38.872Z,85.04
2023-04-10T03:06:40.532Z,85.13
2023-04-10T03:07:42.153Z,84.86
2023-04-10T03:08:43.843Z,85.06
2023-04-10T03:09:45.444Z,85.27
2023-04-10T03:10:48.845Z,85.13
2023-04-10T03:11:50.417Z,84.99
2023-04-10T03:12:51.973Z,85.00
2023-04-10T03:13:53.916Z,84.91
2023-04-10T03:14:55.894Z,84.73
2023-04-10T03:15:57.478Z,84.70
2023-04-10T03:16:59.143Z,84.62
2023-04-10T03:18:00.811Z,84.77
2023-04-10T03:19:02.508Z,85.00
2023-04-10T03:20:04.360Z,84.98
2023-04-10T03:21:06.485Z,85.09
2023-04-10T03:22:08.134Z,84.85
2023-04-10T03:23:10.610Z,84.85
2023-04-10T03:24:12.337Z,84.67
2023-04-10T03:25:14.058Z,84.91
2023-04-10T03:26:15.874Z,84.91
2023-04-10T03:27:17.657Z,84.67
2023-04-10T03:28:19.372Z,84.78
2023-04-10T03:29:21.580Z,84.74
2023-04-10T03:30:23.208Z,84.61
2023-04-10T03:31:24.861Z,84.78
2023-04-10T03:32:28.197Z,84.81
2023-04-10T03:33:30.119Z,84.76
2023-04-10T03:34:31.746Z,84.78
2023-04-10T03:35:33.358Z,85.03
2023-04-10T03:36:35.002Z,84.97
2023-04-10T03:37:36.775Z,85.08
2023-04-10T03:38:38.427Z,85.10
2023-04-10T03:39:40.222Z,85.01
2023-04-10T03:40:41.838Z,85.09
2023-04-10T03:41:43.488Z,85.06
2023-04-10T03:42:45.050Z,85.22
2023-04-10T03:43:46.639Z,85.10
2023-04-10T03:44:48.228Z,85.03
2023-04-10T03:45:50.079Z,85.07
2023-04-10T03:46:51.720Z,84.98
2023-04-10T03:47:53.388Z,84.73
2023-04-10T03:48:54.980Z,84.48
2023-04-10T03:49:56.592Z,84.53
2023-04-10T03:50:59.196Z,84.33
2023-04-10T03:52:01.120Z,84.53
2023-04-10T03:53:02.745Z,85.00
2023-04-10T03:54:04.338Z,85.27
2023-04-10T03:55:06.572Z,85.18
2023-04-10T03:56:08.617Z,85.43
2023-04-10T03:57:10.265Z,85.60
2023-04-10T03:58:12.508Z,85.65
2023-04-10T03:59:14.090Z,85.67
2023-04-10T04:00:16.252Z,85.82
2023-04-10T04:01:17.969Z,85.94
2023-04-10T04:02:19.623Z,85.74
2023-04-10T04:03:21.993Z,85.60
2023-04-10T04:04:23.997Z,85.65
2023-04-10T04:05:25.821Z,85.56
2023-04-10T04:06:27.492Z,85.51
2023-04-10T04:07:29.062Z,85.62
2023-04-10T04:08:31.115Z,85.58
2023-04-10T04:09:32.738Z,85.33
2023-04-10T04:10:35.449Z,85.54
2023-04-10T04:11:38.578Z,85.65
2023-04-10T04:12:40.425Z,85.71
2023-04-10T04:13:42.052Z,85.72
2023-04-10T04:14:44.799Z,86.08
2023-04-10T04:15:47.922Z,86.05
2023-04-10T04:16:49.893Z,86.26
2023-04-10T04:17:52.036Z,85.99
2023-04-10T04:18:53.690Z,85.93
2023-04-10T04:19:55.401Z,85.89
2023-04-10T04:20:57.034Z,85.84
2023-04-10T04:22:00.445Z,85.79
2023-04-10T04:23:02.180Z,85.80
2023-04-10T04:24:03.873Z,86.55
2023-04-10T04:25:08.916Z,86.43
2023-04-10T04:26:10.661Z,86.37
2023-04-10T04:27:12.249Z,86.62
2023-04-10T04:28:16.206Z,86.54
2023-04-10T04:29:17.804Z,86.51
2023-04-10T04:30:19.466Z,86.29
2023-04-10T04:31:21.357Z,86.05
2023-04-10T04:32:23.129Z,86.29
2023-04-10T04:33:24.811Z,86.39
2023-04-10T04:34:26.464Z,86.40
2023-04-10T04:35:28.121Z,86.46
2023-04-10T04:36:29.801Z,86.46
2023-04-10T04:37:31.387Z,86.28
2023-04-10T04:38:32.977Z,86.13
2023-04-10T04:39:34.561Z,85.77
2023-04-10T04:40:36.191Z,85.57
2023-04-10T04:41:37.789Z,85.12
2023-04-10T04:42:39.413Z,85.15
2023-04-10T04:43:41.257Z,85.01
2023-04-10T04:44:43.952Z,84.76
2023-04-10T04:45:45.782Z,84.70
2023-04-10T04:46:47.385Z,84.56
2023-04-10T04:47:49.034Z,84.57
2023-04-10T04:48:50.718Z,84.29
2023-04-10T04:49:52.363Z,84.34
2023-04-10T04:50:54.078Z,84.22
2023-04-10T04:51:55.702Z,84.34
2023-04-10T04:52:57.290Z,84.23
2023-04-10T04:53:58.880Z,84.23
2023-04-10T04:55:00.467Z,84.54
2023-04-10T04:56:02.762Z,84.60
2023-04-10T04:57:04.401Z,84.23
2023-04-10T04:58:06.045Z,83.74
2023-04-10T04:59:07.629Z,83.24
2023-04-10T05:00:09.628Z,83.35
2023-04-10T05:01:11.684Z,82.56
2023-04-10T05:02:13.456Z,82.51
2023-04-10T05:03:15.225Z,82.52
2023-04-10T05:04:17.293Z,82.00
2023-04-10T05:05:18.998Z,81.60
2023-04-10T05:06:20.672Z,81.30
2023-04-10T05:07:22.385Z,80.81
2023-04-10T05:08:24.130Z,81.34
2023-04-10T05:09:25.873Z,80.88
2023-04-10T05:10:27.715Z,79.61
2023-04-10T05:11:29.310Z,79.25
2023-04-10T05:12:31.250Z,78.59
2023-04-10T05:13:32.899Z,78.19
2023-04-10T05:14:34.486Z,76.69
2023-04-10T05:15:36.121Z,75.32
2023-04-10T05:16:37.777Z,75.13
2023-04-10T05:17:39.395Z,74.39
2023-04-10T05:18:41.351Z,75.00
2023-04-10T05:19:43.286Z,74.54
2023-04-10T05:20:46.785Z,74.22
2023-04-10T05:21:48.430Z,75.02
2023-04-10T05:22:50.356Z,74.59
2023-04-10T05:23:51.996Z,73.10
2023-04-10T05:24:55.226Z,73.21
2023-04-10T05:25:56.926Z,72.80
2023-04-10T05:26:58.532Z,71.31
2023-04-10T05:28:00.277Z,71.50
2023-04-10T05:29:01.899Z,71.94
2023-04-10T05:30:04.062Z,72.04
2023-04-10T05:31:06.205Z,71.73
2023-04-10T05:32:07.812Z,72.20
2023-04-10T05:33:09.411Z,72.49
2023-04-10T05:34:11.039Z,71.68
2023-04-10T05:35:12.695Z,71.12
2023-04-10T05:36:14.515Z,71.32
2023-04-10T05:37:16.204Z,70.47
2023-04-10T05:38:17.828Z,70.88
2023-04-10T05:39:19.432Z,70.79
2023-04-10T05:40:21.113Z,69.59
2023-04-10T05:41:22.723Z,70.27
2023-04-10T05:42:24.384Z,69.51
2023-04-10T05:43:26.103Z,68.95
2023-04-10T05:44:27.722Z,69.34
2023-04-10T05:45:30.196Z,68.82
2023-04-10T05:46:31.836Z,68.61
2023-04-10T05:47:33.637Z,69.26
2023-04-10T05:48:35.249Z,69.67
2023-04-10T05:49:36.823Z,69.24
2023-04-10T05:50:38.418Z,70.11
2023-04-10T05:51:40.048Z,70.30
2023-04-10T05:52:41.704Z,70.21
2023-04-10T05:53:43.349Z,71.00
2023-04-10T05:54:44.920Z,71.91
2023-04-10T05:55:51.392Z,72.03
2023-04-10T05:56:52.985Z,72.29
2023-04-10T05:57:54.754Z,72.59
2023-04-10T05:58:56.500Z,72.59
2023-04-10T05:59:58.169Z,73.19
2023-04-10T06:00:59.857Z,73.46
2023-04-10T06:02:02.082Z,74.17
2023-04-10T06:03:04.275Z,74.99
2023-04-10T06:04:06.186Z,74.74
2023-04-10T06:05:08.195Z,74.80
2023-04-10T06:06:09.813Z,75.80
2023-04-10T06:07:11.451Z,75.46
2023-04-10T06:08:13.042Z,75.35
2023-04-10T06:09:14.726Z,76.30
2023-04-10T06:10:16.594Z,76.70
2023-04-10T06:11:18.418Z,76.47
2023-04-10T06:12:20.007Z,77.11
2023-04-10T06:13:21.665Z,76.94
2023-04-10T06:14:23.263Z,77.00
2023-04-10T06:15:24.906Z,77.37
2023-04-10T06:16:26.830Z,76.98
2023-04-10T06:17:28.641Z,77.09
2023-04-10T06:18:30.431Z,76.39
2023-04-10T06:19:32.037Z,76.77
2023-04-10T06:20:33.740Z,76.49
2023-04-10T06:21:35.754Z,76.06
2023-04-10T06:22:37.374Z,75.57
2023-04-10T06:23:39.000Z,75.76
2023-04-10T06:24:40.671Z,76.16
2023-04-10T06:25:42.457Z,76.06
2023-04-10T06:26:44.079Z,76.60
2023-04-10T06:27:45.739Z,76.88
2023-04-10T06:28:47.402Z,76.48
2023-04-10T06:29:49.005Z,76.87
2023-04-10T06:30:50.721Z,76.24
2023-04-10T06:31:52.638Z,76.25
2023-04-10T06:32:54.452Z,76.20
2023-04-10T06:33:56.173Z,76.26
2023-04-10T06:34:57.886Z,76.24
2023-04-10T06:35:59.531Z,75.89
2023-04-10T06:37:01.592Z,76.33
2023-04-10T06:38:03.718Z,76.49
2023-04-10T06:39:06.634Z,76.25
2023-04-10T06:40:12.965Z,76.20
2023-04-10T06:41:14.536Z,76.14
2023-04-10T06:42:16.263Z,76.39
2023-04-10T06:43:17.932Z,76.04
2023-04-10T06:44:19.517Z,76.55
2023-04-10T06:45:21.617Z,75.53
2023-04-10T06:46:23.276Z,75.72
2023-04-10T06:47:25.027Z,76.08
2023-04-10T06:48:26.711Z,76.96
2023-04-10T06:49:28.398Z,75.90
2023-04-10T06:50:31.617Z,75.98
2023-04-10T06:51:34.546Z,75.78
2023-04-10T06:52:36.128Z,75.73
2023-04-10T06:53:37.828Z,75.90
2023-04-10T06:54:39.436Z,75.59
2023-04-10T06:55:41.067Z,75.22
2023-04-10T06:56:42.662Z,75.17
2023-04-10T06:57:44.292Z,75.26
2023-04-10T06:58:45.963Z,75.06
2023-04-10T06:59:47.591Z,75.10
2023-04-10T07:00:49.233Z,74.92
2023-04-10T07:01:51.113Z,75.08
2023-04-10T07:02:52.842Z,74.78
2023-04-10T07:03:54.540Z,75.02
2023-04-10T07:04:56.996Z,74.49
2023-04-10T07:05:58.888Z,74.08
2023-04-10T07:07:00.566Z,73.35
2023-04-10T07:08:02.165Z,73.57
2023-04-10T07:09:03.861Z,73.76
2023-04-10T07:10:07.128Z,73.90
2023-04-10T07:11:08.921Z,73.74
2023-04-10T07:12:10.510Z,73.78
2023-04-10T07:13:12.080Z,73.63
2023-04-10T07:14:13.780Z,73.83
2023-04-10T07:15:16.159Z,73.31
2023-04-10T07:16:17.825Z,73.59
2023-04-10T07:17:19.474Z,73.65
2023-04-10T07:18:21.135Z,73.78
2023-04-10T07:19:22.754Z,73.27
2023-04-10T07:20:24.305Z,73.36
2023-04-10T07:21:27.279Z,73.93
2023-04-10T07:22:28.865Z,73.60
2023-04-10T07:23:30.446Z,73.92
2023-04-10T07:24:32.786Z,73.66
2023-04-10T07:25:34.436Z,72.92
2023-04-10T07:26:36.173Z,72.90
2023-04-10T07:27:37.787Z,72.44
2023-04-10T07:28:39.428Z,71.68
2023-04-10T07:29:41.254Z,70.38
2023-04-10T07:30:42.894Z,71.19
2023-04-10T07:31:44.762Z,70.24
2023-04-10T07:32:46.875Z,70.82
2023-04-10T07:33:48.683Z,70.83
2023-04-10T07:34:50.627Z,71.17
2023-04-10T07:35:52.232Z,71.42
2023-04-10T07:36:53.874Z,71.04
2023-04-10T07:37:55.657Z,70.80
2023-04-10T07:38:57.240Z,71.22
2023-04-10T07:39:58.889Z,70.28
2023-04-10T07:41:00.505Z,70.60
2023-04-10T07:42:02.108Z,71.07
2023-04-10T07:43:03.740Z,70.71
2023-04-10T07:44:05.452Z,71.68
2023-04-10T07:45:07.816Z,71.33
2023-04-10T07:46:09.506Z,70.82
2023-04-10T07:47:11.615Z,70.82
2023-04-10T07:48:13.366Z,71.72
2023-04-10T07:49:14.966Z,70.32
2023-04-10T07:50:16.621Z,69.86
2023-04-10T07:51:18.283Z,69.72
2023-04-10T07:52:19.885Z,69.46
2023-04-10T07:53:21.476Z,69.73
2023-04-10T07:54:23.199Z,68.53
2023-04-10T07:55:24.844Z,69.00
2023-04-10T07:56:26.414Z,68.73
2023-04-10T07:57:28.002Z,68.57
2023-04-10T07:58:29.590Z,68.83
2023-04-10T07:59:31.862Z,68.84
2023-04-10T08:00:33.794Z,68.48
2023-04-10T08:01:35.687Z,67.62
2023-04-10T08:02:37.525Z,67.31
2023-04-10T08:03:43.364Z,68.08
2023-04-10T08:04:45.497Z,67.95
2023-04-10T08:05:47.229Z,68.12
2023-04-10T08:06:50.102Z,67.80
2023-04-10T08:07:51.733Z,67.80
2023-04-10T08:08:53.648Z,67.41
2023-04-10T08:09:55.387Z,68.07
2023-04-10T08:10:57.233Z,68.25
2023-04-10T08:11:58.879Z,67.93
2023-04-10T08:13:00.484Z,67.25
2023-04-10T08:14:02.799Z,68.51
2023-04-10T08:15:04.752Z,68.38
2023-04-10T08:16:06.874Z,66.09
2023-04-10T08:17:14.740Z,66.05
2023-04-10T08:18:16.544Z,66.01
2023-04-10T08:19:18.093Z,65.89
2023-04-10T08:20:19.751Z,66.12
2023-04-10T08:21:21.777Z,66.35
2023-04-10T08:22:23.341Z,65.80
2023-04-10T08:23:24.984Z,65.14
2023-04-10T08:24:26.628Z,64.53
2023-04-10T08:25:28.237Z,65.25
2023-04-10T08:26:29.938Z,65.51
2023-04-10T08:27:31.719Z,65.69
2023-04-10T08:28:33.501Z,65.70
2023-04-10T08:29:35.164Z,65.28
2023-04-10T08:30:36.788Z,63.63
2023-04-10T08:31:38.416Z,63.06
2023-04-10T08:32:40.079Z,62.26
2023-04-10T08:33:41.813Z,63.57
2023-04-10T08:34:43.487Z,62.32
2023-04-10T08:35:48.582Z,63.17
2023-04-10T08:36:50.190Z,61.68
2023-04-10T08:38:07.668Z,61.10
2023-04-10T08:39:13.381Z,61.99
2023-04-10T08:40:16.076Z,61.86
2023-04-10T08:41:18.700Z,58.72
2023-04-10T08:42:20.487Z,58.90
2023-04-10T08:43:22.141Z,59.32
2023-04-10T08:44:23.703Z,59.97
2023-04-10T08:45:25.451Z,59.53
2023-04-10T08:46:27.464Z,58.68
2023-04-10T08:47:29.172Z,58.43
2023-04-10T08:48:47.213Z,57.78
2023-04-10T08:49:54.358Z,57.06
2023-04-10T08:50:56.001Z,56.59
2023-04-10T08:51:58.858Z,51.69
2023-04-10T08:53:00.659Z,52.87
2023-04-10T08:54:07.085Z,54.15
2023-04-10T08:55:09.109Z,54.28
2023-04-10T08:56:13.251Z,54.39
2023-04-10T08:57:20.590Z,55.06
2023-04-10T08:58:22.497Z,54.55
2023-04-10T08:59:24.161Z,55.35
2023-04-10T09:00:26.047Z,54.54
2023-04-10T09:01:27.731Z,55.95
2023-04-10T09:02:29.658Z,54.69
2023-04-10T09:03:31.581Z,53.06
2023-04-10T09:04:33.669Z,53.77
2023-04-10T09:05:35.525Z,55.37
2023-04-10T09:06:37.198Z,54.53
2023-04-10T09:07:38.962Z,52.86
2023-04-10T09:08:40.587Z,52.86
2023-04-10T09:09:42.701Z,53.11
2023-04-10T09:10:44.500Z,55.11
2023-04-10T09:11:51.894Z,53.30
2023-04-10T09:12:53.495Z,53.79
2023-04-10T09:13:55.169Z,52.58
2023-04-10T09:14:57.008Z,52.62
2023-04-10T09:15:59.105Z,52.82
2023-04-10T09:17:19.286Z,53.30
2023-04-10T09:18:21.311Z,52.41
2023-04-10T09:19:33.061Z,51.81
2023-04-10T09:20:34.788Z,51.29
2023-04-10T09:21:36.382Z,52.76
2023-04-10T09:22:37.965Z,51.89
2023-04-10T09:23:39.625Z,51.08
2023-04-10T09:24:43.005Z,50.92
2023-04-10T09:25:44.639Z,51.72
2023-04-10T09:26:46.251Z,52.21
2023-04-10T09:27:47.876Z,50.62
2023-04-10T09:29:03.026Z,52.44
2023-04-10T09:30:05.215Z,52.94
2023-04-10T09:31:27.029Z,50.22
2023-04-10T09:32:42.207Z,48.98
2023-04-10T09:33:43.861Z,50.05
2023-04-10T09:34:56.614Z,49.83
2023-04-10T09:35:58.555Z,48.30
2023-04-10T09:37:01.837Z,49.63
2023-04-10T09:38:22.257Z,49.16
2023-04-10T09:39:43.122Z,50.80
2023-04-10T09:40:45.735Z,51.02
2023-04-10T09:41:57.585Z,49.59
2023-04-10T09:42:59.224Z,51.23
2023-04-10T09:44:12.499Z,51.46
2023-04-10T09:45:14.143Z,51.45
2023-04-10T09:46:26.427Z,49.12
2023-04-10T09:47:28.389Z,48.76
2023-04-10T09:48:30.039Z,49.04
2023-04-10T09:49:44.684Z,48.64
2023-04-10T09:50:46.382Z,47.92
2023-04-10T09:51:49.613Z,45.95
2023-04-10T09:52:57.550Z,46.44
2023-04-10T09:54:00.351Z,46.66
2023-04-10T09:55:04.271Z,46.29
2023-04-10T09:56:06.436Z,46.42
2023-04-10T09:57:08.385Z,46.01
2023-04-10T09:58:10.609Z,46.35
2023-04-10T09:59:12.189Z,46.55
2023-04-10T10:00:14.784Z,46.81
2023-04-10T10:01:16.388Z,46.07
2023-04-10T10:02:24.952Z,47.54
2023-04-10T10:03:26.844Z,46.68
2023-04-10T10:04:28.641Z,45.49
2023-04-10T10:05:30.944Z,45.86
2023-04-10T10:06:33.002Z,45.88
2023-04-10T10:07:34.572Z,44.44
2023-04-10T10:08:36.386Z,44.13
2023-04-10T10:09:38.615Z,46.13
2023-04-10T10:10:45.948Z,42.25
2023-04-10T10:11:47.893Z,42.32
2023-04-10T10:12:52.020Z,43.06
2023-04-10T10:13:58.424Z,43.01
2023-04-10T10:15:34.709Z,42.54
2023-04-10T10:16:40.077Z,42.32
2023-04-10T10:18:11.205Z,43.20
2023-04-10T10:19:22.239Z,43.69
2023-04-10T10:20:24.087Z,43.42
2023-04-10T10:21:26.760Z,42.68
2023-04-10T10:22:28.927Z,43.19
2023-04-10T10:23:31.529Z,42.12
2023-04-10T10:24:33.157Z,41.83
2023-04-10T10:25:35.320Z,42.25
2023-04-10T10:26:38.969Z,42.74
2023-04-10T10:27:40.819Z,42.94
2023-04-10T10:28:42.448Z,43.19
2023-04-10T10:29:44.562Z,43.02
2023-04-10T10:30:46.421Z,42.33
2023-04-10T10:31:48.305Z,42.63
2023-04-10T10:32:50.049Z,43.43
2023-04-10T10:33:52.697Z,42.62
2023-04-10T10:34:54.377Z,42.90
2023-04-10T10:36:00.187Z,42.12
2023-04-10T10:37:02.166Z,42.74
2023-04-10T10:38:04.285Z,42.38
2023-04-10T10:39:27.369Z,42.68
2023-04-10T10:40:45.467Z,43.04
2023-04-10T10:42:01.729Z,42.57
2023-04-10T10:43:12.542Z,42.59
2023-04-10T10:44:37.522Z,41.88
2023-04-10T10:46:03.364Z,41.66
2023-04-10T10:47:10.079Z,41.98
2023-04-10T10:48:12.021Z,42.34
2023-04-10T10:49:13.635Z,42.39
2023-04-10T10:50:15.444Z,41.54
2023-04-10T10:51:17.078Z,41.02
2023-04-10T10:52:43.577Z,41.90
2023-04-10T10:53:45.329Z,42.52
2023-04-10T10:54:57.031Z,42.39
2023-04-10T10:56:24.168Z,41.92
2023-04-10T10:57:48.344Z,41.47
2023-04-10T10:58:54.585Z,41.87
2023-04-10T10:59:56.745Z,42.03
2023-04-10T11:00:58.344Z,42.03
2023-04-10T11:02:27.281Z,41.95
2023-04-10T11:03:29.351Z,41.02
2023-04-10T11:04:46.767Z,43.35
2023-04-10T11:05:55.423Z,41.96
2023-04-10T11:06:57.175Z,43.19
2023-04-10T11:07:58.760Z,42.77
2023-04-10T11:09:00.418Z,42.84
2023-04-10T11:10:02.095Z,42.86
2023-04-10T11:11:07.917Z,42.47
2023-04-10T11:12:09.509Z,40.38
2023-04-10T11:13:18.130Z,41.74
2023-04-10T11:14:19.781Z,42.48
2023-04-10T11:15:24.621Z,43.09
2023-04-10T11:16:34.068Z,41.63
2023-04-10T11:17:51.788Z,41.52
2023-04-10T11:19:02.647Z,41.73
2023-04-10T11:20:08.258Z,41.21
2023-04-10T11:21:13.233Z,41.95
2023-04-10T11:22:15.770Z,42.71
2023-04-10T11:23:20.533Z,43.04
2023-04-10T11:24:22.321Z,42.14
2023-04-10T11:25:23.929Z,41.87
2023-04-10T11:26:39.325Z,43.09
2023-04-10T11:27:46.473Z,43.73
2023-04-10T11:28:48.044Z,43.68
2023-04-10T11:29:49.711Z,43.97
2023-04-10T11:30:51.324Z,44.72
2023-04-10T11:31:59.462Z,44.67
2023-04-10T11:33:01.751Z,43.63
2023-04-10T11:34:04.439Z,44.38
2023-04-10T11:35:06.579Z,42.71
2023-04-10T11:36:08.287Z,43.70
2023-04-10T11:37:09.869Z,44.20
2023-04-10T11:38:15.454Z,44.10
2023-04-10T11:39:19.056Z,43.62
2023-04-10T11:40:21.253Z,43.17
2023-04-10T11:41:33.128Z,42.69
2023-04-10T11:42:34.742Z,43.17
2023-04-10T11:43:36.539Z,43.29
2023-04-10T11:44:42.204Z,43.16
2023-04-10T11:45:43.913Z,44.05
2023-04-10T11:46:48.454Z,44.14
2023-04-10T11:47:53.738Z,44.29
2023-04-10T11:48:59.818Z,44.77
2023-04-10T11:50:01.643Z,44.91
2023-04-10T11:51:10.440Z,46.22
2023-04-10T11:52:12.054Z,47.10
2023-04-10T11:53:20.193Z,46.50
2023-04-10T11:54:23.130Z,46.73
2023-04-10T11:55:38.374Z,47.58
2023-04-10T11:56:41.593Z,46.58
2023-04-10T11:57:44.350Z,47.21
2023-04-10T11:58:46.033Z,46.94
2023-04-10T11:59:50.067Z,47.39
2023-04-10T12:01:02.329Z,46.63
2023-04-10T12:02:16.706Z,46.52
2023-04-10T12:03:18.556Z,46.77
2023-04-10T12:04:21.472Z,47.23
2023-04-10T12:05:23.259Z,48.20
2023-04-10T12:06:24.918Z,47.74
2023-04-10T12:07:30.300Z,47.05
2023-04-10T12:08:34.153Z,48.02
2023-04-10T12:09:35.928Z,48.65
2023-04-10T12:10:47.170Z,49.07
2023-04-10T12:11:56.859Z,48.28
2023-04-10T12:12:58.490Z,48.02
2023-04-10T12:14:00.141Z,48.18
2023-04-10T12:15:01.725Z,48.11
2023-04-10T12:16:08.058Z,48.36
2023-04-10T12:17:10.772Z,48.94
2023-04-10T12:18:12.549Z,48.75
2023-04-10T12:19:14.386Z,48.49
2023-04-10T12:20:16.849Z,49.00
2023-04-10T12:21:18.448Z,49.53
2023-04-10T12:22:20.136Z,48.45
2023-04-10T12:23:23.517Z,49.16
2023-04-10T12:24:44.476Z,48.23
2023-04-10T12:25:46.123Z,48.36
2023-04-10T12:26:49.646Z,48.52
2023-04-10T12:27:51.725Z,47.85
2023-04-10T12:28:57.913Z,48.19
2023-04-10T12:29:59.807Z,48.24
2023-04-10T12:31:01.444Z,48.42
2023-04-10T12:32:09.549Z,48.72
2023-04-10T12:33:11.297Z,47.56
2023-04-10T12:34:12.975Z,48.26
2023-04-10T12:35:14.568Z,49.05
2023-04-10T12:36:23.061Z,49.38
2023-04-10T12:37:25.536Z,49.78
2023-04-10T12:38:41.188Z,49.72
2023-04-10T12:39:42.797Z,50.07
2023-04-10T12:41:00.734Z,49.16
2023-04-10T12:42:15.855Z,48.85
2023-04-10T12:43:36.000Z,49.03
2023-04-10T12:44:59.496Z,49.26
2023-04-10T12:46:01.155Z,49.68
2023-04-10T12:47:03.059Z,48.69
2023-04-10T12:48:04.736Z,47.75
2023-04-10T12:49:16.475Z,48.12
2023-04-10T12:50:18.823Z,48.45
2023-04-10T12:51:20.489Z,47.76
2023-04-10T12:52:25.439Z,47.66
2023-04-10T12:53:28.122Z,48.20
2023-04-10T12:54:34.021Z,48.95
2023-04-10T12:55:35.669Z,49.38
2023-04-10T12:56:43.891Z,49.82
2023-04-10T12:57:46.413Z,49.08
2023-04-10T12:58:48.069Z,48.00
2023-04-10T12:59:50.208Z,48.15
2023-04-10T13:00:51.801Z,48.55
2023-04-10T13:01:54.083Z,48.44
2023-04-10T13:02:55.964Z,47.87
2023-04-10T13:03:58.676Z,47.81
2023-04-10T13:05:00.594Z,47.66
2023-04-10T13:06:03.049Z,47.31
2023-04-10T13:07:04.647Z,46.96
2023-04-10T13:08:06.342Z,46.91
2023-04-10T13:09:07.927Z,47.81
2023-04-10T13:10:09.757Z,47.54
2023-04-10T13:11:12.281Z,47.28
2023-04-10T13:12:13.979Z,46.56
2023-04-10T13:13:15.851Z,47.38
2023-04-10T13:14:17.921Z,46.92
2023-04-10T13:15:20.075Z,47.91
2023-04-10T13:16:21.732Z,47.95
2023-04-10T13:17:24.590Z,48.27
2023-04-10T13:18:26.309Z,48.10
2023-04-10T13:19:27.934Z,48.26
2023-04-10T13:20:29.873Z,48.44
2023-04-10T13:21:31.605Z,47.15
2023-04-10T13:22:33.294Z,46.07
2023-04-10T13:23:34.904Z,46.58
2023-04-10T13:24:37.192Z,46.46
2023-04-10T13:25:39.912Z,46.35
2023-04-10T13:26:41.659Z,46.47
2023-04-10T13:27:43.329Z,47.79
2023-04-10T13:28:44.982Z,47.02
2023-04-10T13:29:46.749Z,47.29
2023-04-10T13:30:48.362Z,47.76
2023-04-10T13:31:50.428Z,47.98
2023-04-10T13:32:52.114Z,47.69
2023-04-10T13:33:53.718Z,47.78
2023-04-10T13:34:56.150Z,47.98
2023-04-10T13:35:57.777Z,47.34
2023-04-10T13:36:59.560Z,47.90
2023-04-10T13:38:01.423Z,48.03